Time;durP1;ratioP1;P1;durP2;ratioP2;P2;SDS_P1;SDS_P2;PMS_P1;PMS_P2;Temp;Humidity;BMP_temperature;BMP_pressure;BME280_temperature;BME280_humidity;BME280_pressure;Samples;Min_cycle;Max_cycle;Signal;HPM_P1;HPM_P2
2023/09/15 00:01:32;;;;;;;10.32;6.53;;;;;;;13.25;66.51;99616.25;5116184;27;20046;-70
2023/09/15 00:03:58;;;;;;;17.17;7.53;;;;;;;13.23;66.72;99614.69;5115893;27;20046;-70
2023/09/15 00:06:23;;;;;;;15.35;8.63;;;;;;;13.19;66.92;99621.28;5080256;27;20057;-70
2023/09/15 00:08:49;;;;;;;13.48;8.05;;;;;;;13.07;67.78;99625.78;5115705;27;20420;-69
2023/09/15 00:11:15;;;;;;;12.05;7.65;;;;;;;13.00;68.20;99628.09;5115432;27;20041;-69
2023/09/15 00:13:41;;;;;;;12.75;7.88;;;;;;;12.94;69.03;99633.09;5096850;27;20046;-68
2023/09/15 00:16:06;;;;;;;11.98;8.40;;;;;;;12.88;69.09;99628.25;5110804;27;20433;-67
2023/09/15 00:18:33;;;;;;;11.00;8.02;;;;;;;12.92;68.44;99635.06;5092960;27;20054;-69
2023/09/15 00:20:58;;;;;;;11.20;7.13;;;;;;;12.88;68.73;99644.28;5096032;27;20416;-68
2023/09/15 00:23:23;;;;;;;9.55;7.53;;;;;;;12.88;68.73;99661.19;5114689;27;20033;-66
2023/09/15 00:25:50;;;;;;;11.93;8.00;;;;;;;12.87;69.09;99635.41;5097086;27;20047;-68
2023/09/15 00:28:15;;;;;;;13.50;7.90;;;;;;;12.89;68.38;99651.34;5115401;27;20042;-68
2023/09/15 00:30:40;;;;;;;10.70;8.00;;;;;;;12.86;68.71;99622.19;5113879;27;20034;-71
2023/09/15 00:33:05;;;;;;;12.10;7.63;;;;;;;12.86;68.42;99630.22;5079535;27;20768;-69
2023/09/15 00:35:31;;;;;;;11.77;7.65;;;;;;;12.83;68.53;99630.44;5115443;27;20051;-67
2023/09/15 00:37:56;;;;;;;13.25;8.18;;;;;;;12.81;68.92;99635.94;5062456;27;20516;-70
2023/09/15 00:40:23;;;;;;;12.63;8.60;;;;;;;12.79;68.57;99634.34;5096700;27;20050;-69
2023/09/15 00:42:51;;;;;;;11.88;7.47;;;;;;;12.80;68.65;99641.41;5113608;27;20377;-71
2023/09/15 00:45:19;;;;;;;17.98;7.75;;;;;;;12.81;68.82;99643.09;5112941;27;20042;-68
2023/09/15 00:47:57;;;;;;;11.75;7.78;;;;;;;12.76;69.40;99640.78;5113857;27;20061;-70
2023/09/15 00:50:29;;;;;;;12.30;8.02;;;;;;;12.78;68.75;99652.22;5095410;27;20038;-69
2023/09/15 00:53:01;;;;;;;11.27;8.00;;;;;;;12.80;68.39;99652.09;5063936;27;20046;-68
2023/09/15 00:55:29;;;;;;;11.68;8.20;;;;;;;12.73;68.82;99647.25;5095728;27;20409;-68
2023/09/15 00:57:56;;;;;;;11.07;7.38;;;;;;;12.66;68.65;99640.69;5099591;27;20053;-66
2023/09/15 01:00:22;;;;;;;11.48;7.28;;;;;;;12.67;68.52;99663.78;5119083;27;20043;-69
2023/09/15 01:02:49;;;;;;;14.77;7.35;;;;;;;12.65;68.67;99648.81;5099257;27;20058;-68
2023/09/15 01:05:23;;;;;;;14.25;7.65;;;;;;;12.62;69.40;99660.63;5100601;27;20046;-70
2023/09/15 01:07:50;;;;;;;13.48;7.95;;;;;;;12.61;69.56;99653.56;5100734;27;20496;-70
2023/09/15 01:10:16;;;;;;;16.60;7.78;;;;;;;12.58;69.51;99653.81;5096743;27;20057;-71
2023/09/15 01:12:44;;;;;;;13.27;8.30;;;;;;;12.64;68.81;99653.31;5119094;27;20035;-72
2023/09/15 01:15:10;;;;;;;13.15;8.15;;;;;;;12.63;69.26;99661.47;5100855;27;20043;-70
2023/09/15 01:17:45;;;;;;;11.63;7.40;;;;;;;12.62;69.30;99657.97;5119098;27;20039;-71
2023/09/15 01:20:17;;;;;;;17.42;8.30;;;;;;;12.58;68.50;99659.16;5097945;27;20054;-68
2023/09/15 01:23:10;;;;;;;10.95;8.38;;;;;;;12.64;68.85;99660.53;5086219;27;20079;-72
2023/09/15 01:26:18;;;;;;;14.05;7.85;;;;;;;12.66;68.96;99664.75;5070226;27;20039;-71
2023/09/15 01:29:05;;;;;;;12.10;8.02;;;;;;;12.58;69.06;99653.81;5098300;27;20051;-70
2023/09/15 01:31:32;;;;;;;13.30;8.35;;;;;;;12.51;69.00;99663.31;5101461;27;20043;-72
2023/09/15 01:33:57;;;;;;;15.82;8.68;;;;;;;12.50;69.60;99661.59;5118922;27;20054;-71
2023/09/15 01:36:24;;;;;;;12.30;7.45;;;;;;;12.49;69.28;99673.28;5079467;27;20055;-72
2023/09/15 01:38:50;;;;;;;16.40;7.90;;;;;;;12.47;69.08;99669.84;5105662;27;20065;-70
2023/09/15 01:41:15;;;;;;;12.02;7.63;;;;;;;12.49;69.94;99672.41;5100048;27;20496;-71
2023/09/15 01:43:40;;;;;;;14.68;8.25;;;;;;;12.47;69.70;99667.19;5099428;27;20054;-72
2023/09/15 01:46:05;;;;;;;13.48;8.20;;;;;;;12.51;69.70;99665.97;5115133;27;20043;-69
2023/09/15 01:48:32;;;;;;;11.30;7.93;;;;;;;12.45;70.16;99663.78;5116081;27;20057;-70
2023/09/15 01:50:58;;;;;;;10.52;7.85;;;;;;;12.42;69.76;99682.72;5118059;27;20543;-71
2023/09/15 01:53:25;;;;;;;13.07;7.90;;;;;;;12.44;69.89;99678.13;5117899;27;20039;-71
2023/09/15 01:55:50;;;;;;;14.40;8.32;;;;;;;12.48;69.48;99657.34;5118195;27;20050;-71
2023/09/15 01:58:15;;;;;;;10.60;7.80;;;;;;;12.43;70.09;99729.88;5099494;27;20045;-71
2023/09/15 02:00:41;;;;;;;12.90;8.52;;;;;;;12.45;69.58;99658.44;5099777;27;20043;-72
2023/09/15 02:03:06;;;;;;;12.93;8.60;;;;;;;12.45;70.02;99658.44;5099391;27;20045;-71
2023/09/15 02:05:32;;;;;;;13.82;8.60;;;;;;;12.47;69.56;99655.63;5100065;27;20039;-70
2023/09/15 02:07:57;;;;;;;15.57;8.90;;;;;;;12.46;69.76;99659.28;5098789;27;20046;-69
2023/09/15 02:10:23;;;;;;;13.82;8.57;;;;;;;12.41;70.70;99662.34;5099569;27;20389;-70
2023/09/15 02:12:49;;;;;;;14.00;7.90;;;;;;;12.41;70.43;99678.38;5099425;27;20053;-69
2023/09/15 02:15:14;;;;;;;10.80;8.13;;;;;;;12.40;70.63;99730.16;5117696;27;20046;-71
2023/09/15 02:17:40;;;;;;;14.57;8.93;;;;;;;12.47;70.46;99677.88;5117517;27;20046;-70
2023/09/15 02:20:12;;;;;;;13.20;8.73;;;;;;;12.50;70.02;99650.91;5099309;27;20047;-68
2023/09/15 02:22:42;;;;;;;15.85;8.65;;;;;;;12.52;69.98;99667.69;5117597;27;20050;-68
2023/09/15 02:25:12;;;;;;;12.88;8.70;;;;;;;12.50;70.08;99661.59;5117471;27;20042;-67
2023/09/15 02:27:38;;;;;;;17.50;8.48;;;;;;;12.53;70.11;99666.69;5117660;27;20520;-68
2023/09/15 02:30:07;;;;;;;18.60;9.23;;;;;;;12.54;69.94;99668.38;5118013;27;20413;-71
2023/09/15 02:32:35;;;;;;;11.43;8.38;;;;;;;12.53;69.57;99677.38;5079180;27;20050;-69
2023/09/15 02:35:00;;;;;;;13.77;8.50;;;;;;;12.52;69.50;99670.38;5096799;27;20051;-69
2023/09/15 02:37:25;;;;;;;14.10;8.02;;;;;;;12.45;70.28;99679.81;5078503;27;20050;-70
2023/09/15 02:39:53;;;;;;;13.43;8.30;;;;;;;12.49;70.17;99670.59;5061708;27;20378;-68
2023/09/15 02:42:18;;;;;;;13.38;7.97;;;;;;;12.52;70.00;99664.16;5108020;27;20046;-66
2023/09/15 02:44:43;;;;;;;17.60;8.07;;;;;;;12.51;69.90;99667.81;5098921;27;20038;-65
2023/09/15 02:47:10;;;;;;;12.18;8.38;;;;;;;12.53;69.80;99671.19;5117258;27;20047;-66
2023/09/15 02:49:35;;;;;;;14.25;8.35;;;;;;;12.52;69.68;99670.38;5092519;27;20038;-64
2023/09/15 02:52:01;;;;;;;13.35;8.45;;;;;;;12.53;69.32;99674.72;5098707;27;20046;-66
2023/09/15 02:54:27;;;;;;;13.30;8.30;;;;;;;12.52;69.59;99675.72;5098613;27;20058;-65
2023/09/15 02:56:54;;;;;;;14.50;8.82;;;;;;;12.52;70.02;99680.22;5097816;27;20045;-65
2023/09/15 02:59:19;;;;;;;12.95;8.32;;;;;;;12.48;69.87;99679.59;5098285;27;20038;-65
2023/09/15 03:01:44;;;;;;;13.02;7.93;;;;;;;12.44;70.53;99672.75;5116793;27;20042;-66
2023/09/15 03:04:10;;;;;;;13.82;8.32;;;;;;;12.44;70.64;99699.50;5077332;27;20058;-66
2023/09/15 03:06:35;;;;;;;12.95;8.65;;;;;;;12.48;70.63;99679.59;5090505;27;20039;-66
2023/09/15 03:09:00;;;;;;;14.18;8.05;;;;;;;12.48;70.10;99700.13;5080056;27;20500;-66
2023/09/15 03:11:25;;;;;;;12.93;7.85;;;;;;;12.50;70.49;99674.97;5096713;27;20045;-65
2023/09/15 03:14:04;;;;;;;12.93;9.05;;;;;;;12.55;70.28;99680.78;5098110;27;20050;-74
2023/09/15 03:16:29;;;;;;;17.42;9.00;;;;;;;12.56;69.93;99682.50;5099212;27;20409;-72
2023/09/15 03:18:55;;;;;;;17.13;8.82;;;;;;;12.58;69.91;99674.34;5099421;27;20061;-74
2023/09/15 03:21:20;;;;;;;17.33;8.20;;;;;;;12.56;69.89;99681.66;5117509;27;20431;-73
2023/09/15 03:23:48;;;;;;;16.20;8.27;;;;;;;12.59;69.26;99692.09;5117446;27;20397;-73
2023/09/15 03:26:13;;;;;;;14.27;8.32;;;;;;;12.58;70.01;99685.06;5099016;27;20046;-73
2023/09/15 03:28:41;;;;;;;16.35;8.70;;;;;;;12.58;70.03;99691.25;5078046;27;20428;-74
2023/09/15 03:31:08;;;;;;;12.30;7.95;;;;;;;12.62;69.96;99675.81;5115875;27;20038;-75
2023/09/15 03:33:33;;;;;;;12.85;8.35;;;;;;;12.69;69.85;99687.72;5068739;27;20061;-76
2023/09/15 03:35:59;;;;;;;14.10;8.45;;;;;;;12.79;70.12;99688.69;5117215;27;20405;-76
2023/09/15 03:38:24;;;;;;;11.90;7.95;;;;;;;12.90;69.70;99682.47;5098601;27;20035;-75
2023/09/15 03:40:49;;;;;;;13.55;7.72;;;;;;;13.03;69.31;99681.38;5098017;27;20501;-75
2023/09/15 03:43:16;;;;;;;10.77;7.60;;;;;;;13.13;68.78;99676.13;5096386;27;20485;-74
2023/09/15 03:45:48;;;;;;;15.30;7.50;;;;;;;13.24;68.64;99685.97;5061635;27;20501;-76
2023/09/15 03:48:14;;;;;;;13.68;8.25;;;;;;;13.27;68.18;99686.59;5097252;27;20053;-76
2023/09/15 03:50:40;;;;;;;12.82;8.32;;;;;;;13.36;67.88;99683.16;5083089;27;20046;-78
2023/09/15 03:53:06;;;;;;;11.82;7.70;;;;;;;13.43;67.78;99683.53;5082776;27;20050;-77
2023/09/15 03:55:33;;;;;;;13.07;7.72;;;;;;;13.52;67.14;99676.53;5065733;27;20508;-78
2023/09/15 03:58:00;;;;;;;12.57;7.85;;;;;;;13.61;66.56;99678.44;5100470;27;20527;-78
2023/09/15 04:00:25;;;;;;;12.73;8.00;;;;;;;13.67;66.29;99680.59;5099888;27;20046;-76
2023/09/15 04:02:51;;;;;;;11.63;7.68;;;;;;;13.70;65.91;99680.34;5118715;27;20050;-77
2023/09/15 04:05:17;;;;;;;12.90;8.50;;;;;;;13.70;66.24;99685.72;5097929;27;20063;-78
2023/09/15 04:07:42;;;;;;;17.27;8.05;;;;;;;13.70;65.92;99681.22;5097814;27;20421;-76
2023/09/15 04:10:08;;;;;;;16.20;8.43;;;;;;;13.64;65.83;99703.16;5095773;27;20046;-77
2023/09/15 04:12:36;;;;;;;12.20;7.70;;;;;;;13.61;66.19;99692.69;5097350;27;20591;-78
2023/09/15 04:15:04;;;;;;;14.23;8.00;;;;;;;13.56;66.72;99696.72;5095502;27;20043;-77
2023/09/15 04:17:30;;;;;;;13.43;7.00;;;;;;;13.55;66.73;99690.50;5095060;27;20409;-78
2023/09/15 04:19:56;;;;;;;12.90;8.65;;;;;;;13.55;66.48;99695.00;5080402;28;20047;-77
2023/09/15 04:22:22;;;;;;;15.38;7.75;;;;;;;13.55;66.89;99701.22;5096614;27;20043;-74
2023/09/15 04:24:47;;;;;;;14.45;8.10;;;;;;;13.57;67.36;99706.47;5096740;27;20043;-75
2023/09/15 04:27:12;;;;;;;17.27;9.25;;;;;;;13.59;67.14;99702.69;5097486;27;20523;-75
2023/09/15 04:29:55;;;;;;;16.17;8.55;;;;;;;13.69;66.88;99700.94;5116559;27;20493;-74
2023/09/15 04:32:25;;;;;;;14.80;9.07;;;;;;;13.63;66.48;99705.97;5088706;27;20043;-75
2023/09/15 04:34:51;;;;;;;14.18;8.02;;;;;;;13.65;66.52;99704.88;5069796;27;20054;-75
2023/09/15 04:37:17;;;;;;;15.15;8.77;;;;;;;13.69;66.24;99721.53;5103620;27;20061;-74
2023/09/15 04:39:43;;;;;;;16.58;9.43;;;;;;;13.77;66.13;99708.31;5104222;27;20500;-74
2023/09/15 04:42:12;;;;;;;12.82;8.85;;;;;;;13.78;66.10;99704.66;5104247;27;20042;-74
2023/09/15 04:44:40;;;;;;;12.63;8.25;;;;;;;13.82;65.63;99700.75;5104453;27;20065;-73
2023/09/15 04:47:06;;;;;;;15.52;8.70;;;;;;;13.86;65.69;99702.22;5086815;27;20057;-76
2023/09/15 04:49:33;;;;;;;13.68;8.70;;;;;;;13.88;65.62;99711.00;5104877;27;20476;-77
2023/09/15 04:51:59;;;;;;;13.23;8.32;;;;;;;13.93;65.61;99703.41;5088409;27;20054;-77
2023/09/15 04:54:26;;;;;;;13.82;9.52;;;;;;;13.96;65.92;99713.00;5104516;27;20053;-77
2023/09/15 04:56:53;;;;;;;15.82;8.95;;;;;;;14.06;64.93;99720.16;5086388;27;20457;-78
2023/09/15 04:59:19;;;;;;;14.15;8.65;;;;;;;14.18;65.28;99718.25;5104320;27;20046;-77
2023/09/15 05:01:46;;;;;;;11.35;7.85;;;;;;;14.37;64.97;99713.00;5104864;27;20054;-78
2023/09/15 05:04:14;;;;;;;15.23;8.60;;;;;;;14.62;64.56;99711.78;5087275;27;20419;-72
2023/09/15 05:06:40;;;;;;;15.57;8.93;;;;;;;14.87;63.37;99722.06;5083441;27;20414;-72
2023/09/15 05:09:08;;;;;;;14.90;9.20;;;;;;;15.15;63.06;99671.28;5085582;27;20062;-72
2023/09/15 05:11:35;;;;;;;13.13;8.93;;;;;;;15.44;61.98;99704.44;5088065;27;20043;-77
2023/09/15 05:14:01;;;;;;;12.43;7.70;;;;;;;15.82;60.88;99708.16;5066458;27;20073;-76
2023/09/15 05:16:27;;;;;;;14.93;8.27;;;;;;;16.23;60.03;99709.69;5066630;27;20050;-75
2023/09/15 05:18:53;;;;;;;12.82;8.48;;;;;;;16.54;57.98;99713.88;5066031;27;20509;-75
2023/09/15 05:21:21;;;;;;;16.77;9.55;;;;;;;16.80;57.01;99691.72;5083748;27;20124;-75
2023/09/15 05:23:46;;;;;;;18.73;8.10;;;;;;;16.99;56.70;99703.25;5083970;27;20042;-73
2023/09/15 05:26:13;;;;;;;17.23;9.27;;;;;;;17.17;55.86;99702.44;5099899;27;20049;-73
2023/09/15 05:28:38;;;;;;;17.33;8.93;;;;;;;17.36;55.64;99700.50;5103393;27;20042;-71
2023/09/15 05:31:03;;;;;;;14.90;8.23;;;;;;;17.54;55.78;99705.06;5122181;27;20054;-71
2023/09/15 05:33:31;;;;;;;14.82;9.13;;;;;;;17.80;54.73;99699.81;5069943;27;20057;-72
2023/09/15 05:35:57;;;;;;;11.48;8.75;;;;;;;18.02;54.30;99716.38;5125258;27;20497;-73
2023/09/15 05:38:26;;;;;;;16.25;9.00;;;;;;;18.27;53.64;99719.28;5103430;27;20050;-73
2023/09/15 05:40:52;;;;;;;16.05;8.68;;;;;;;18.55;52.78;99711.88;5103084;27;20046;-72
2023/09/15 05:43:18;;;;;;;11.20;8.70;;;;;;;18.76;52.14;99721.31;5099370;27;20038;-72
2023/09/15 05:45:45;;;;;;;14.02;8.65;;;;;;;19.15;51.17;99716.28;5099952;27;20046;-73
2023/09/15 05:48:12;;;;;;;14.00;8.18;;;;;;;20.04;48.80;99706.72;5122220;27;20046;-73
2023/09/15 05:50:38;;;;;;;20.60;9.65;;;;;;;21.21;46.04;99712.50;5125253;27;20057;-72
2023/09/15 05:53:03;;;;;;;14.85;8.73;;;;;;;22.23;43.35;99719.53;5122987;27;20372;-72
2023/09/15 05:55:29;;;;;;;13.20;8.35;;;;;;;23.10;41.89;99712.53;5099607;27;20055;-70
2023/09/15 05:57:54;;;;;;;12.23;8.23;;;;;;;23.39;39.94;99717.09;5100920;27;20038;-73
2023/09/15 06:00:19;;;;;;;15.88;8.88;;;;;;;24.23;39.70;99696.50;5100710;27;20043;-73
2023/09/15 06:02:44;;;;;;;11.38;7.97;;;;;;;25.39;37.86;99695.81;5099189;27;20047;-72
2023/09/15 06:05:09;;;;;;;16.98;8.25;;;;;;;26.35;35.94;99691.88;5118147;27;20035;-72
2023/09/15 06:07:36;;;;;;;16.83;8.95;;;;;;;27.29;34.46;99693.41;5117971;27;20043;-72
2023/09/15 06:10:01;;;;;;;15.10;8.25;;;;;;;28.14;33.44;99700.34;5096336;27;20425;-74
2023/09/15 06:12:27;;;;;;;16.85;8.88;;;;;;;27.78;32.13;99715.53;5095989;27;20050;-73
2023/09/15 06:14:56;;;;;;;16.50;8.88;;;;;;;27.23;32.21;99716.16;5096014;27;20046;-72
2023/09/15 06:17:21;;;;;;;15.43;7.78;;;;;;;26.78;32.90;99696.88;5097500;27;20046;-73
2023/09/15 06:19:47;;;;;;;11.25;7.97;;;;;;;27.07;32.59;99695.59;5096319;27;20043;-73
2023/09/15 06:22:12;;;;;;;12.07;8.88;;;;;;;27.80;31.59;99688.75;5097461;27;20035;-74
2023/09/15 06:24:37;;;;;;;12.25;7.88;;;;;;;28.59;30.08;99686.50;5097275;27;20444;-72
2023/09/15 06:27:02;;;;;;;11.80;7.60;;;;;;;28.94;29.11;99709.63;5099342;27;20034;-73
2023/09/15 06:29:28;;;;;;;14.05;6.60;;;;;;;29.37;28.47;99686.72;5099315;27;20439;-74
2023/09/15 06:31:53;;;;;;;9.55;6.07;;;;;;;29.88;27.92;99689.88;5099792;27;20043;-74
2023/09/15 06:34:18;;;;;;;7.40;5.88;;;;;;;30.03;26.96;99689.47;5117878;27;20051;-75
2023/09/15 06:36:43;;;;;;;14.13;6.40;;;;;;;29.95;26.50;99693.41;5098488;27;20069;-74
2023/09/15 06:39:09;;;;;;;9.43;5.90;;;;;;;30.47;26.03;99679.88;5094907;27;20047;-74
2023/09/15 06:41:34;;;;;;;9.90;5.95;;;;;;;31.11;25.43;99693.81;5097230;27;20039;-75
2023/09/15 06:44:00;;;;;;;27.33;6.40;;;;;;;30.94;25.20;99683.47;5095753;27;20043;-75
2023/09/15 06:46:26;;;;;;;13.07;6.18;;;;;;;29.67;26.14;99698.66;5097037;27;20035;-75
2023/09/15 06:48:52;;;;;;;11.10;6.72;;;;;;;29.42;26.85;99700.66;5096940;27;20047;-73
2023/09/15 06:51:17;;;;;;;9.50;6.13;;;;;;;29.39;26.92;99698.38;5102734;27;20039;-75
2023/09/15 06:53:42;;;;;;;8.38;5.25;;;;;;;29.18;27.75;99699.66;5097555;27;20050;-76
2023/09/15 06:56:07;;;;;;;12.18;5.88;;;;;;;28.52;28.24;99701.13;5117803;27;20042;-73
2023/09/15 06:58:32;;;;;;;9.00;6.03;;;;;;;27.87;28.72;99701.59;5117492;27;20555;-76
2023/09/15 07:00:58;;;;;;;8.32;5.53;;;;;;;27.06;29.34;99704.84;5117411;27;20540;-76
2023/09/15 07:03:24;;;;;;;10.70;5.10;;;;;;;26.86;29.79;99701.31;5077905;27;20055;-75
2023/09/15 07:05:50;;;;;;;7.82;5.00;;;;;;;26.13;30.60;99712.22;5078585;27;20031;-77
2023/09/15 07:08:15;;;;;;;8.65;5.53;;;;;;;25.36;31.56;99709.88;5077542;27;20043;-75
2023/09/15 07:10:41;;;;;;;9.75;5.70;;;;;;;24.26;33.62;99714.34;5096474;27;20149;-75
2023/09/15 07:13:06;;;;;;;10.40;5.60;;;;;;;24.07;33.64;99722.09;5084813;27;20050;-75
2023/09/15 07:15:35;;;;;;;13.07;5.93;;;;;;;23.14;34.75;99732.88;5116978;27;20413;-73
2023/09/15 07:18:01;;;;;;;8.52;5.82;;;;;;;22.51;35.71;99717.88;5116652;27;20046;-75
2023/09/15 07:20:26;;;;;;;10.75;6.15;;;;;;;22.07;36.27;99726.75;5117305;27;20039;-75
2023/09/15 07:22:52;;;;;;;6.95;5.32;;;;;;;21.70;37.28;99730.19;5117378;27;20051;-76
2023/09/15 07:25:17;;;;;;;9.80;5.63;;;;;;;21.69;37.65;99722.22;5116896;27;20043;-75
2023/09/15 07:27:42;;;;;;;7.28;5.47;;;;;;;22.09;37.06;99716.56;5117039;27;20038;-75
2023/09/15 07:30:10;;;;;;;8.13;5.50;;;;;;;22.78;36.28;99747.22;5117390;27;20046;-75
2023/09/15 07:32:35;;;;;;;11.27;5.70;;;;;;;24.05;34.73;99715.97;5117234;27;20043;-76
2023/09/15 07:35:01;;;;;;;8.13;5.82;;;;;;;25.80;32.47;99722.25;5097997;27;20405;-76
2023/09/15 07:37:26;;;;;;;8.15;5.55;;;;;;;27.64;30.07;99724.06;5117341;27;20057;-76
2023/09/15 07:39:51;;;;;;;10.52;6.03;;;;;;;29.61;27.88;99707.81;5094794;27;20043;-76
2023/09/15 07:42:16;;;;;;;13.57;6.43;;;;;;;31.38;26.27;99712.28;5079186;27;20054;-77
2023/09/15 07:44:42;;;;;;;12.82;6.82;;;;;;;32.36;24.88;99708.47;5079504;27;20501;-76
2023/09/15 07:47:12;;;;;;;6.18;5.45;;;;;;;32.13;24.45;99718.75;5097555;27;20043;-77
2023/09/15 07:49:37;;;;;;;11.85;5.90;;;;;;;32.16;24.37;99721.03;5097092;27;20046;-77
2023/09/15 07:52:03;;;;;;;7.40;5.93;;;;;;;33.09;23.86;99712.94;5110936;27;20053;-79
2023/09/15 07:54:29;;;;;;;11.55;7.28;;;;;;;33.51;22.59;99710.50;5098642;27;20058;-78
2023/09/15 07:56:54;;;;;;;10.07;7.45;;;;;;;34.00;22.31;99717.97;5116665;27;20051;-76
2023/09/15 07:59:19;;;;;;;9.80;6.15;;;;;;;35.24;21.44;99701.00;5097388;27;20049;-74
2023/09/15 08:01:45;;;;;;;11.43;9.93;;;;;;;34.97;21.40;99703.91;5096944;27;20424;-75
2023/09/15 08:04:10;;;;;;;14.45;7.25;;;;;;;34.15;21.83;99710.69;5096547;27;20535;-74
2023/09/15 08:06:35;;;;;;;13.00;7.47;;;;;;;32.59;23.30;99670.75;5115253;27;20052;-77
2023/09/15 08:09:00;;;;;;;8.52;6.25;;;;;;;30.81;25.08;99718.72;5096628;27;20070;-75
2023/09/15 08:11:26;;;;;;;8.55;6.32;;;;;;;29.77;26.91;99718.16;5096622;27;20050;-76
2023/09/15 08:13:51;;;;;;;10.23;6.10;;;;;;;28.91;27.42;99721.03;5097534;27;20053;-75
2023/09/15 08:16:16;;;;;;;11.68;6.25;;;;;;;28.36;28.04;99725.50;5107234;27;20053;-74
2023/09/15 08:18:41;;;;;;;9.40;5.97;;;;;;;28.10;29.11;99730.09;5097587;27;20061;-74
2023/09/15 08:21:07;;;;;;;8.95;5.60;;;;;;;28.11;28.58;99726.28;5097261;27;20051;-75
2023/09/15 08:23:33;;;;;;;9.38;6.13;;;;;;;28.37;28.94;99733.53;5096884;27;20054;-74
2023/09/15 08:26:01;;;;;;;11.63;6.10;;;;;;;28.49;28.55;99728.16;5116343;27;20045;-74
2023/09/15 08:28:26;;;;;;;9.38;6.22;;;;;;;28.39;29.25;99722.34;5097732;27;20864;-75
2023/09/15 08:30:51;;;;;;;13.02;6.40;;;;;;;28.57;29.04;99718.78;5097051;27;20053;-75
2023/09/15 08:33:16;;;;;;;7.85;6.03;;;;;;;29.26;28.87;99724.88;5115872;27;20049;-75
2023/09/15 08:35:42;;;;;;;9.13;5.85;;;;;;;30.72;27.28;99706.34;5115906;27;20053;-73
2023/09/15 08:38:08;;;;;;;7.70;6.00;;;;;;;32.72;24.97;99712.69;5115872;27;20046;-75
2023/09/15 08:40:38;;;;;;;8.68;5.80;;;;;;;34.03;23.25;99745.13;5115988;27;20041;-74
2023/09/15 08:43:06;;;;;;;6.57;5.72;;;;;;;34.90;22.29;99728.22;5097446;27;20053;-76
2023/09/15 08:45:33;;;;;;;12.07;5.55;;;;;;;33.88;22.47;99721.72;5115593;27;20511;-74
2023/09/15 08:48:03;;;;;;;7.05;5.57;;;;;;;32.38;23.44;99722.00;5097171;27;20046;-75
2023/09/15 08:50:30;;;;;;;8.77;5.40;;;;;;;31.77;24.49;99728.28;5115919;27;20780;-75
2023/09/15 08:52:56;;;;;;;6.35;5.60;;;;;;;31.01;25.30;99738.44;5115861;27;20528;-74
2023/09/15 08:55:22;;;;;;;6.88;5.60;;;;;;;30.73;25.46;99705.28;5115645;27;20056;-74
2023/09/15 08:57:48;;;;;;;8.77;5.38;;;;;;;30.02;26.00;99722.72;5062721;27;20062;-73
2023/09/15 09:00:13;;;;;;;6.82;5.15;;;;;;;29.38;26.84;99737.88;5115359;27;20057;-74
2023/09/15 09:02:39;;;;;;;12.35;5.13;;;;;;;28.48;27.79;99718.25;5115078;27;20045;-73
2023/09/15 09:05:06;;;;;;;6.75;6.15;;;;;;;27.63;28.71;99723.22;5096120;27;20050;-73
2023/09/15 09:07:32;;;;;;;7.93;5.28;;;;;;;26.85;29.64;99719.59;5115154;27;20043;-73
2023/09/15 09:09:59;;;;;;;5.88;5.18;;;;;;;26.39;30.46;99719.63;5095482;27;20046;-73
2023/09/15 09:12:24;;;;;;;6.82;5.07;;;;;;;26.22;30.24;99724.63;5096439;27;20042;-73
2023/09/15 09:14:54;;;;;;;9.55;5.10;;;;;;;25.81;30.22;99726.66;5115149;27;20136;-73
2023/09/15 09:17:22;;;;;;;6.65;5.28;;;;;;;25.06;31.28;99735.72;5117396;27;20046;-73
2023/09/15 09:19:47;;;;;;;5.22;4.72;;;;;;;24.45;32.74;99730.00;5083079;27;20053;-73
2023/09/15 09:22:19;;;;;;;6.97;5.47;;;;;;;24.52;32.78;99730.91;5101203;27;20050;-73
2023/09/15 09:24:52;;;;;;;8.43;4.53;;;;;;;25.05;32.63;99728.59;5119338;27;20485;-73
2023/09/15 09:27:17;;;;;;;7.75;4.72;;;;;;;25.87;31.13;99714.88;5066843;27;20049;-73
2023/09/15 09:29:43;;;;;;;7.47;5.30;;;;;;;26.44;30.09;99716.25;5119235;27;20057;-74
2023/09/15 09:32:13;;;;;;;8.43;4.45;;;;;;;26.73;29.94;99729.50;5119320;27;20038;-73
2023/09/15 09:34:38;;;;;;;5.70;4.60;;;;;;;26.22;30.31;99708.22;5083720;27;20076;-73
2023/09/15 09:37:04;;;;;;;8.43;4.93;;;;;;;25.92;30.77;99715.97;5118907;27;20050;-73
2023/09/15 09:39:29;;;;;;;6.05;4.30;;;;;;;25.59;30.31;99737.69;5119119;27;20046;-75
2023/09/15 09:41:55;;;;;;;8.13;4.72;;;;;;;25.05;31.55;99720.41;5079338;27;20043;-74
2023/09/15 09:44:20;;;;;;;5.90;4.30;;;;;;;24.82;31.83;99748.78;5079252;27;20051;-73
2023/09/15 09:46:45;;;;;;;5.82;4.43;;;;;;;24.76;32.09;99727.75;5098433;27;20039;-74
2023/09/15 09:49:13;;;;;;;9.85;4.85;;;;;;;24.64;32.77;99723.88;5079129;27;20051;-74
2023/09/15 09:51:38;;;;;;;7.00;5.30;;;;;;;24.61;32.66;99713.34;5098224;27;20518;-73
2023/09/15 09:54:06;;;;;;;6.72;4.95;;;;;;;24.65;32.87;99752.81;5097949;27;20042;-74
2023/09/15 09:56:32;;;;;;;8.98;4.70;;;;;;;24.50;32.71;99722.91;5079463;27;20497;-74
2023/09/15 09:59:08;;;;;;;7.15;5.03;;;;;;;24.34;33.13;99725.09;5104582;27;20057;-74
2023/09/15 10:01:34;;;;;;;6.45;4.65;;;;;;;23.70;34.77;99719.59;5118166;27;20046;-74
2023/09/15 10:04:00;;;;;;;7.75;4.68;;;;;;;23.58;34.76;99721.13;5118694;27;20043;-75
2023/09/15 10:06:25;;;;;;;8.85;4.68;;;;;;;23.70;34.42;99730.50;5118041;27;20038;-74
2023/09/15 10:08:50;;;;;;;7.50;5.28;;;;;;;23.60;34.42;99743.53;5118222;27;20051;-74
2023/09/15 10:11:16;;;;;;;7.40;4.97;;;;;;;23.51;34.77;99729.22;5097645;27;20047;-74
2023/09/15 10:13:42;;;;;;;5.95;4.65;;;;;;;23.65;35.23;99728.34;5118289;27;20045;-74
2023/09/15 10:16:11;;;;;;;6.97;5.20;;;;;;;23.84;34.56;99725.00;5117387;27;20042;-74
2023/09/15 10:18:37;;;;;;;8.30;4.85;;;;;;;23.89;34.12;99751.66;5099130;27;20043;-74
2023/09/15 10:21:05;;;;;;;4.45;4.05;;;;;;;23.70;33.94;99719.59;5116237;27;20046;-73
2023/09/15 10:23:30;;;;;;;5.20;3.90;;;;;;;23.71;33.82;99721.28;5082371;27;20053;-75
2023/09/15 10:25:56;;;;;;;5.78;4.65;;;;;;;23.61;33.74;99729.75;5116304;27;20043;-72
2023/09/15 10:28:22;;;;;;;7.50;4.38;;;;;;;23.48;33.66;99754.03;5077664;27;20421;-74
2023/09/15 10:30:54;;;;;;;8.35;4.32;;;;;;;23.37;34.39;99736.31;5117672;27;20049;-73
2023/09/15 10:33:26;;;;;;;5.55;4.32;;;;;;;23.41;34.25;99728.63;5115444;27;20050;-74
2023/09/15 10:35:51;;;;;;;8.95;4.05;;;;;;;23.47;34.34;99726.00;5098164;27;20050;-74
2023/09/15 10:38:29;;;;;;;5.93;4.68;;;;;;;23.71;34.05;99727.56;5117927;27;20046;-74
2023/09/15 10:40:58;;;;;;;5.55;4.43;;;;;;;23.66;33.70;99729.19;5121326;27;20046;-75
2023/09/15 10:43:23;;;;;;;5.30;4.13;;;;;;;23.74;33.21;99732.63;5082951;27;20065;-76
2023/09/15 10:46:03;;;;;;;7.20;4.85;;;;;;;23.84;33.43;99732.31;5098087;27;20046;-75
2023/09/15 10:48:39;;;;;;;11.00;5.13;;;;;;;23.79;33.56;99727.47;5087494;27;20512;-76
2023/09/15 10:51:08;;;;;;;6.47;4.60;;;;;;;23.29;32.75;99741.88;5116097;27;20412;-77
2023/09/15 10:53:46;;;;;;;12.02;4.30;;;;;;;23.17;33.34;99746.94;5097753;27;20054;-75
2023/09/15 10:56:12;;;;;;;8.38;6.95;;;;;;;22.96;33.99;99743.28;5098227;27;20116;-77
2023/09/15 10:58:38;;;;;;;8.10;5.05;;;;;;;22.92;34.29;99763.72;5117241;27;20053;-75
2023/09/15 11:01:05;;;;;;;8.85;5.13;;;;;;;22.68;34.83;99735.75;5116968;27;20444;-76
2023/09/15 11:03:31;;;;;;;7.15;4.38;;;;;;;22.61;34.92;99739.38;5096504;27;20046;-73
2023/09/15 11:05:58;;;;;;;6.60;4.72;;;;;;;22.57;34.46;99747.06;5095192;27;20042;-72
2023/09/15 11:08:25;;;;;;;5.97;4.20;;;;;;;22.46;35.09;99742.03;5098092;27;20050;-73
2023/09/15 11:11:04;;;;;;;6.25;4.50;;;;;;;22.59;35.86;99753.13;5116918;27;20862;-72
2023/09/15 11:13:30;;;;;;;11.18;5.50;;;;;;;22.42;36.09;99757.03;5116790;27;20046;-74
2023/09/15 11:15:55;;;;;;;8.05;4.80;;;;;;;22.43;36.23;99743.28;5097807;27;20038;-74
2023/09/15 11:18:20;;;;;;;5.80;4.70;;;;;;;22.46;36.20;99734.72;5113794;27;20066;-73
2023/09/15 11:20:46;;;;;;;7.88;5.25;;;;;;;22.49;36.88;99768.00;5098237;27;20043;-72
2023/09/15 11:23:12;;;;;;;6.30;4.70;;;;;;;22.45;36.87;99735.78;5116910;27;20038;-73
2023/09/15 11:25:38;;;;;;;7.88;5.13;;;;;;;22.42;36.69;99735.31;5116698;27;20034;-73
2023/09/15 11:28:11;;;;;;;6.00;4.80;;;;;;;22.53;37.19;99743.00;5097581;27;20039;-72